Time;durP1;ratioP1;P1;durP2;ratioP2;P2;SDS_P1;SDS_P2;PMS_P1;PMS_P2;Temp;Humidity;BMP_temperature;BMP_pressure;BME280_temperature;BME280_humidity;BME280_pressure;Samples;Min_cycle;Max_cycle;Signal;HPM_P1;HPM_P2
2022/12/23 00:00:17;;;;;;;0.93;0.93;;;;;;;;;;5039390;28;20282;-69
2022/12/23 00:02:44;;;;;;;1.33;1.23;;;;;;;;;;5030953;28;20216;-69
2022/12/23 00:05:12;;;;;;;2.40;1.00;;;;;;;;;;5042057;28;20204;-69
2022/12/23 00:07:39;;;;;;;2.00;1.37;;;;;;;;;;5032091;28;20232;-68
2022/12/23 00:10:08;;;;;;;2.50;1.43;;;;;;;;;;5044933;28;20831;-69
2022/12/23 00:15:20;;;;;;;1.13;1.07;;;;;;;;;;5036263;28;20207;-69
2022/12/23 00:17:47;;;;;;;2.73;1.40;;;;;;;;;;5048687;28;20208;-68
2022/12/23 00:20:15;;;;;;;0.93;0.93;;;;;;;;;;5040424;28;20351;-69
2022/12/23 00:25:43;;;;;;;1.13;1.10;;;;;;;;;;5025196;28;20633;-67
2022/12/23 00:28:12;;;;;;;0.90;0.90;;;;;;;;;;5034827;28;20223;-68
2022/12/23 00:30:44;;;;;;;0.90;0.90;;;;;;;;;;5030258;28;20204;-68
2022/12/23 00:33:11;;;;;;;2.17;1.13;;;;;;;;;;5035844;28;20742;-67
2022/12/23 00:35:47;;;;;;;1.10;1.10;;;;;;;;;;5036766;28;20204;-67
2022/12/23 00:38:15;;;;;;;1.17;1.17;;;;;;;;;;5030351;28;20242;-68
2022/12/23 00:43:28;;;;;;;1.30;1.30;;;;;;;;;;5030102;28;20233;-67
2022/12/23 00:45:55;;;;;;;4.83;2.60;;;;;;;;;;5034826;28;20253;-68
2022/12/23 00:51:07;;;;;;;0.93;0.93;;;;;;;;;;5030187;28;20234;-68
2022/12/23 00:53:34;;;;;;;3.97;1.13;;;;;;;;;;5034128;28;20694;-67
2022/12/23 00:56:02;;;;;;;3.83;1.20;;;;;;;;;;5032930;28;20227;-67
2022/12/23 00:58:30;;;;;;;0.80;0.80;;;;;;;;;;5046076;28;20257;-67
2022/12/23 01:06:27;;;;;;;1.40;1.30;;;;;;;;;;5042061;28;20583;-67
2022/12/23 01:08:54;;;;;;;0.70;0.70;;;;;;;;;;5037599;28;20242;-67
2022/12/23 01:11:22;;;;;;;0.87;0.83;;;;;;;;;;5030622;28;20235;-67
2022/12/23 01:13:49;;;;;;;0.93;0.83;;;;;;;;;;5038259;28;20216;-68
2022/12/23 01:16:16;;;;;;;0.90;0.90;;;;;;;;;;5041870;28;20207;-67
2022/12/23 01:18:43;;;;;;;1.00;1.00;;;;;;;;;;5033509;28;20610;-68
2022/12/23 01:21:11;;;;;;;0.87;0.87;;;;;;;;;;5047493;28;20219;-67
2022/12/23 01:23:38;;;;;;;0.93;0.53;;;;;;;;;;5033451;28;20318;-68
2022/12/23 01:26:06;;;;;;;0.80;0.80;;;;;;;;;;5030659;28;20200;-68
2022/12/23 01:28:35;;;;;;;3.57;1.30;;;;;;;;;;5031793;28;20227;-68
2022/12/23 01:31:03;;;;;;;0.87;0.87;;;;;;;;;;5043861;28;20273;-67
2022/12/23 01:33:31;;;;;;;0.70;0.70;;;;;;;;;;5040763;28;20224;-68
2022/12/23 01:36:02;;;;;;;0.80;0.80;;;;;;;;;;5029216;28;20639;-68
2022/12/23 01:38:29;;;;;;;0.80;0.80;;;;;;;;;;5034086;28;20201;-68
2022/12/23 01:40:56;;;;;;;0.67;0.67;;;;;;;;;;5036671;28;20211;-68
2022/12/23 01:43:23;;;;;;;0.80;0.80;;;;;;;;;;5046335;28;20203;-67
2022/12/23 01:45:52;;;;;;;0.80;0.80;;;;;;;;;;5047280;28;20195;-69
2022/12/23 01:48:21;;;;;;;0.80;0.70;;;;;;;;;;5036777;28;20231;-69
2022/12/23 01:50:50;;;;;;;0.80;0.80;;;;;;;;;;5047271;28;20212;-68
2022/12/23 01:53:19;;;;;;;0.90;0.90;;;;;;;;;;5044480;28;20693;-68
2022/12/23 01:55:48;;;;;;;0.93;0.93;;;;;;;;;;5032268;28;20702;-68
2022/12/23 01:58:17;;;;;;;0.67;0.67;;;;;;;;;;5029090;28;20208;-68
2022/12/23 02:03:43;;;;;;;0.80;0.80;;;;;;;;;;5028441;28;20203;-69
2022/12/23 02:12:08;;;;;;;2.40;1.17;;;;;;;;;;5042180;28;20234;-68
2022/12/23 02:17:31;;;;;;;2.87;1.23;;;;;;;;;;5035388;28;20578;-68
2022/12/23 02:20:14;;;;;;;1.47;1.47;;;;;;;;;;5029708;28;20200;-68
2022/12/23 02:22:54;;;;;;;1.63;1.30;;;;;;;;;;5028534;28;20258;-68
2022/12/23 02:25:31;;;;;;;1.90;1.70;;;;;;;;;;5046558;28;20222;-68
2022/12/23 02:28:07;;;;;;;1.60;1.47;;;;;;;;;;5030980;28;20212;-67
2022/12/23 02:30:41;;;;;;;1.80;1.70;;;;;;;;;;5030498;28;20678;-68
2022/12/23 02:33:29;;;;;;;1.77;1.40;;;;;;;;;;5046812;28;20265;-68
2022/12/23 02:35:59;;;;;;;1.97;1.73;;;;;;;;;;5030047;28;20215;-68
2022/12/23 02:38:29;;;;;;;1.03;0.93;;;;;;;;;;5040816;28;20192;-68
2022/12/23 02:41:03;;;;;;;1.87;1.30;;;;;;;;;;5032891;28;20295;-68
2022/12/23 02:43:36;;;;;;;1.20;1.07;;;;;;;;;;5051139;28;20844;-68
2022/12/23 02:46:07;;;;;;;0.97;0.97;;;;;;;;;;5034721;28;20592;-67
2022/12/23 02:48:37;;;;;;;1.43;1.33;;;;;;;;;;5044061;28;20224;-66
2022/12/23 02:51:06;;;;;;;0.93;0.93;;;;;;;;;;5038678;28;20300;-67
2022/12/23 02:56:40;;;;;;;2.53;1.53;;;;;;;;;;5035120;28;20239;-66
2022/12/23 02:59:09;;;;;;;5.00;1.10;;;;;;;;;;5039763;28;20659;-69
2022/12/23 03:01:37;;;;;;;0.87;0.87;;;;;;;;;;5045260;28;20282;-69
2022/12/23 03:04:05;;;;;;;1.10;0.97;;;;;;;;;;5032383;28;20208;-69
2022/12/23 03:06:33;;;;;;;1.00;1.00;;;;;;;;;;5032646;28;20213;-69
2022/12/23 03:09:01;;;;;;;0.97;0.97;;;;;;;;;;5046876;28;20223;-67
2022/12/23 03:11:38;;;;;;;0.77;0.77;;;;;;;;;;5047915;28;20236;-67
2022/12/23 03:14:20;;;;;;;0.77;0.77;;;;;;;;;;5033779;28;20222;-67
2022/12/23 03:16:52;;;;;;;0.60;0.60;;;;;;;;;;5005167;28;20373;-67
2022/12/23 03:19:24;;;;;;;0.60;0.60;;;;;;;;;;5036242;28;20236;-68
2022/12/23 03:21:55;;;;;;;2.63;0.73;;;;;;;;;;5040482;28;20646;-68
2022/12/23 03:24:25;;;;;;;0.70;0.70;;;;;;;;;;5044691;28;20207;-68
2022/12/23 03:26:54;;;;;;;0.80;0.80;;;;;;;;;;5032909;28;20208;-68
2022/12/23 03:29:26;;;;;;;0.67;0.67;;;;;;;;;;5047559;28;20235;-68
2022/12/23 03:31:55;;;;;;;2.67;0.90;;;;;;;;;;5046960;28;20219;-68
2022/12/23 03:34:25;;;;;;;0.80;0.80;;;;;;;;;;5048083;28;20211;-67
2022/12/23 03:36:53;;;;;;;1.07;0.97;;;;;;;;;;5047716;28;20207;-72
2022/12/23 03:39:22;;;;;;;1.40;1.13;;;;;;;;;;5046347;28;20204;-68
2022/12/23 03:41:51;;;;;;;0.83;0.83;;;;;;;;;;5031016;28;20726;-68
2022/12/23 03:44:20;;;;;;;0.77;0.77;;;;;;;;;;5037978;28;20208;-67
2022/12/23 03:46:49;;;;;;;1.00;1.00;;;;;;;;;;5042644;28;20667;-68
2022/12/23 03:49:20;;;;;;;1.13;0.80;;;;;;;;;;5032095;28;20232;-68
2022/12/23 03:51:49;;;;;;;1.17;1.17;;;;;;;;;;5037203;28;20211;-68
2022/12/23 03:54:31;;;;;;;0.90;0.73;;;;;;;;;;5034543;28;20246;-67
2022/12/23 03:57:03;;;;;;;0.80;0.80;;;;;;;;;;5041349;28;20220;-68
2022/12/23 03:59:32;;;;;;;0.90;0.80;;;;;;;;;;5034119;28;20571;-68
2022/12/23 04:02:02;;;;;;;0.90;0.90;;;;;;;;;;5044244;28;20204;-68
2022/12/23 04:04:39;;;;;;;1.80;0.80;;;;;;;;;;5035222;28;20207;-67
2022/12/23 04:07:26;;;;;;;0.77;0.77;;;;;;;;;;5037814;28;20216;-68
2022/12/23 04:09:54;;;;;;;0.70;0.70;;;;;;;;;;5027338;28;20275;-67
2022/12/23 04:12:22;;;;;;;0.80;0.80;;;;;;;;;;5030845;28;20216;-67
2022/12/23 04:14:49;;;;;;;3.20;0.60;;;;;;;;;;5035673;28;20574;-67
2022/12/23 04:17:16;;;;;;;0.50;0.50;;;;;;;;;;5042021;28;20265;-67
2022/12/23 04:19:45;;;;;;;0.87;0.70;;;;;;;;;;5046472;28;20208;-69
2022/12/23 04:22:12;;;;;;;0.60;0.60;;;;;;;;;;5040156;28;20218;-68
2022/12/23 04:24:40;;;;;;;1.07;0.73;;;;;;;;;;5045711;28;20215;-68
2022/12/23 04:27:07;;;;;;;0.90;0.90;;;;;;;;;;5035909;28;20207;-69
2022/12/23 04:29:34;;;;;;;0.60;0.60;;;;;;;;;;5033164;28;20274;-68
2022/12/23 04:32:01;;;;;;;0.70;0.70;;;;;;;;;;5036388;28;20204;-68
2022/12/23 04:34:28;;;;;;;0.90;0.90;;;;;;;;;;5038851;28;20213;-69
2022/12/23 04:36:56;;;;;;;0.70;0.70;;;;;;;;;;5042880;28;20682;-69
2022/12/23 04:39:23;;;;;;;0.70;0.70;;;;;;;;;;5032502;28;20200;-69
2022/12/23 04:41:50;;;;;;;22.23;1.10;;;;;;;;;;5038703;28;20208;-68
2022/12/23 04:44:17;;;;;;;0.80;0.80;;;;;;;;;;5037848;28;20695;-68
2022/12/23 04:46:45;;;;;;;3.13;0.60;;;;;;;;;;5030867;28;20397;-68
2022/12/23 04:49:12;;;;;;;20.87;0.80;;;;;;;;;;5029660;28;20235;-68
2022/12/23 04:51:39;;;;;;;0.90;0.90;;;;;;;;;;5046364;28;20710;-68
2022/12/23 04:54:07;;;;;;;11.57;0.60;;;;;;;;;;5044545;28;20215;-68
2022/12/23 04:56:34;;;;;;;14.80;0.57;;;;;;;;;;5032810;28;20230;-68
2022/12/23 04:59:03;;;;;;;0.70;0.70;;;;;;;;;;5033015;28;20203;-68
2022/12/23 05:01:30;;;;;;;0.67;0.60;;;;;;;;;;5039831;28;20200;-68
2022/12/23 05:03:57;;;;;;;3.83;0.70;;;;;;;;;;5032113;28;20258;-68
2022/12/23 05:06:24;;;;;;;1.20;1.10;;;;;;;;;;5035615;28;20212;-68
2022/12/23 05:08:51;;;;;;;0.80;0.80;;;;;;;;;;5033061;28;20290;-68
2022/12/23 05:11:19;;;;;;;0.60;0.60;;;;;;;;;;5030594;28;20294;-68
2022/12/23 05:13:46;;;;;;;0.97;0.70;;;;;;;;;;5035248;28;20200;-68
2022/12/23 05:16:13;;;;;;;4.60;0.57;;;;;;;;;;5043160;28;20216;-68
2022/12/23 05:18:40;;;;;;;0.27;0.27;;;;;;;;;;5048472;28;20257;-68
2022/12/23 05:21:07;;;;;;;20.63;0.70;;;;;;;;;;5037791;28;20816;-68
2022/12/23 05:23:34;;;;;;;1.03;0.70;;;;;;;;;;5032204;28;20218;-68
2022/12/23 05:26:01;;;;;;;3.70;0.90;;;;;;;;;;5046959;28;20211;-68
2022/12/23 05:28:30;;;;;;;0.50;0.50;;;;;;;;;;5037954;28;20235;-69
2022/12/23 05:31:00;;;;;;;0.67;0.67;;;;;;;;;;5045435;28;20228;-68
2022/12/23 05:33:27;;;;;;;4.57;0.50;;;;;;;;;;5029283;28;20626;-68
2022/12/23 05:35:55;;;;;;;0.50;0.50;;;;;;;;;;5043506;28;20204;-68
2022/12/23 05:38:22;;;;;;;0.77;0.77;;;;;;;;;;5028758;28;20274;-69
2022/12/23 05:40:49;;;;;;;0.70;0.70;;;;;;;;;;5030047;28;20213;-68
2022/12/23 05:43:17;;;;;;;1.00;0.60;;;;;;;;;;5029006;28;20216;-68
2022/12/23 05:45:45;;;;;;;0.57;0.57;;;;;;;;;;5033190;28;20728;-68
2022/12/23 05:48:12;;;;;;;0.90;0.90;;;;;;;;;;5032938;28;20579;-68
2022/12/23 05:50:39;;;;;;;0.43;0.43;;;;;;;;;;5041960;28;20219;-68
2022/12/23 05:53:07;;;;;;;0.50;0.50;;;;;;;;;;5030368;28;20233;-68
2022/12/23 05:55:34;;;;;;;0.70;0.70;;;;;;;;;;5029811;28;20235;-69
2022/12/23 05:58:01;;;;;;;0.70;0.70;;;;;;;;;;5035284;28;20276;-68
2022/12/23 06:00:28;;;;;;;0.60;0.60;;;;;;;;;;5044572;28;20204;-68
2022/12/23 06:02:56;;;;;;;0.53;0.53;;;;;;;;;;5038336;28;21125;-68
2022/12/23 06:05:23;;;;;;;0.70;0.70;;;;;;;;;;5030039;28;20216;-68
2022/12/23 06:07:51;;;;;;;0.63;0.60;;;;;;;;;;5030199;28;20208;-68
2022/12/23 06:10:18;;;;;;;0.87;0.87;;;;;;;;;;5037940;28;20236;-69
2022/12/23 06:12:45;;;;;;;1.13;0.97;;;;;;;;;;5030281;28;20208;-68
2022/12/23 06:15:12;;;;;;;0.87;0.70;;;;;;;;;;5034092;28;20290;-68
2022/12/23 06:17:39;;;;;;;0.63;0.63;;;;;;;;;;5029217;28;20215;-68
2022/12/23 06:20:11;;;;;;;0.70;0.70;;;;;;;;;;5027568;28;20216;-67
2022/12/23 06:22:38;;;;;;;0.50;0.50;;;;;;;;;;5041684;28;20646;-69
2022/12/23 06:25:05;;;;;;;1.00;0.70;;;;;;;;;;5039432;28;20584;-65
2022/12/23 06:27:32;;;;;;;0.60;0.60;;;;;;;;;;5040834;28;20205;-67
2022/12/23 06:30:00;;;;;;;0.73;0.73;;;;;;;;;;5033716;28;20926;-66
2022/12/23 06:32:27;;;;;;;1.03;1.03;;;;;;;;;;5033840;28;20216;-67
2022/12/23 06:34:54;;;;;;;0.60;0.60;;;;;;;;;;5030677;28;20204;-67
2022/12/23 06:37:22;;;;;;;0.80;0.80;;;;;;;;;;5036614;28;20215;-67
2022/12/23 06:39:49;;;;;;;0.73;0.73;;;;;;;;;;5032717;28;20197;-69
2022/12/23 06:42:16;;;;;;;0.77;0.77;;;;;;;;;;5028534;28;20212;-68
2022/12/23 06:44:43;;;;;;;0.50;0.43;;;;;;;;;;5030622;28;20209;-69
2022/12/23 06:47:10;;;;;;;3.60;0.80;;;;;;;;;;5029286;28;20634;-69
2022/12/23 06:49:37;;;;;;;8.20;0.80;;;;;;;;;;5026578;28;20220;-69
2022/12/23 06:52:04;;;;;;;3.97;0.57;;;;;;;;;;5031329;28;20208;-69
2022/12/23 06:54:33;;;;;;;0.87;0.83;;;;;;;;;;5034300;28;20562;-69
2022/12/23 06:57:00;;;;;;;0.67;0.63;;;;;;;;;;5028023;28;20251;-69
2022/12/23 06:59:28;;;;;;;0.70;0.70;;;;;;;;;;5035375;28;20208;-69
2022/12/23 07:01:55;;;;;;;1.00;1.00;;;;;;;;;;5030689;28;20299;-69
2022/12/23 07:04:22;;;;;;;1.33;0.87;;;;;;;;;;5042503;28;20240;-69
2022/12/23 07:06:51;;;;;;;0.83;0.83;;;;;;;;;;5036288;28;20216;-69
2022/12/23 07:09:19;;;;;;;1.93;1.80;;;;;;;;;;5028779;28;20721;-69
2022/12/23 07:11:47;;;;;;;2.30;2.03;;;;;;;;;;5047676;28;20248;-69
2022/12/23 07:14:14;;;;;;;1.83;1.73;;;;;;;;;;5037788;28;20201;-69
2022/12/23 07:16:41;;;;;;;1.53;1.40;;;;;;;;;;5037637;28;20245;-69
2022/12/23 07:19:08;;;;;;;1.43;1.43;;;;;;;;;;5036072;28;20213;-69
2022/12/23 07:21:37;;;;;;;1.70;1.70;;;;;;;;;;5039003;28;20768;-69
2022/12/23 07:24:04;;;;;;;1.30;1.30;;;;;;;;;;5035276;28;20196;-68
2022/12/23 07:26:31;;;;;;;1.53;1.43;;;;;;;;;;5043920;28;20203;-68
2022/12/23 07:29:00;;;;;;;1.40;1.40;;;;;;;;;;5041109;28;20212;-68
2022/12/23 07:31:27;;;;;;;2.00;1.40;;;;;;;;;;5043483;28;20225;-68
2022/12/23 07:33:54;;;;;;;1.40;1.23;;;;;;;;;;5042780;28;20207;-68
2022/12/23 07:36:21;;;;;;;1.40;1.30;;;;;;;;;;5044088;28;20204;-68
2022/12/23 07:38:50;;;;;;;1.83;1.30;;;;;;;;;;5036419;28;20220;-68
2022/12/23 07:41:17;;;;;;;1.30;1.30;;;;;;;;;;5034787;28;20295;-68
2022/12/23 07:43:44;;;;;;;1.63;1.53;;;;;;;;;;5036728;28;20215;-68
2022/12/23 07:46:12;;;;;;;2.47;2.23;;;;;;;;;;5040123;28;20203;-68
2022/12/23 07:48:40;;;;;;;3.57;2.50;;;;;;;;;;5038156;28;20200;-67
2022/12/23 07:51:07;;;;;;;2.40;2.20;;;;;;;;;;5042309;28;20286;-70
2022/12/23 07:53:34;;;;;;;2.97;2.73;;;;;;;;;;5033314;28;20734;-68
2022/12/23 07:56:01;;;;;;;6.63;3.70;;;;;;;;;;5039986;28;20713;-68
2022/12/23 07:58:28;;;;;;;3.53;3.13;;;;;;;;;;5032032;28;20212;-68
2022/12/23 08:00:59;;;;;;;4.03;3.63;;;;;;;;;;5033438;28;20263;-68
2022/12/23 08:03:28;;;;;;;6.00;1.70;;;;;;;;;;5030571;28;20786;-68
2022/12/23 08:05:59;;;;;;;3.97;2.70;;;;;;;;;;5036486;28;20230;-68
2022/12/23 08:08:26;;;;;;;8.03;3.50;;;;;;;;;;5031085;28;20655;-68
2022/12/23 08:10:57;;;;;;;3.17;2.90;;;;;;;;;;5031770;28;20236;-67
2022/12/23 08:13:24;;;;;;;2.97;2.67;;;;;;;;;;5042086;28;20215;-67
2022/12/23 08:15:54;;;;;;;4.20;3.80;;;;;;;;;;5046784;28;20200;-68
2022/12/23 08:18:21;;;;;;;2.47;2.27;;;;;;;;;;5048016;28;20211;-68
2022/12/23 08:20:55;;;;;;;2.20;1.97;;;;;;;;;;5039727;28;20215;-69
2022/12/23 08:23:22;;;;;;;3.53;1.80;;;;;;;;;;5049248;28;20638;-66
2022/12/23 08:25:49;;;;;;;2.87;2.67;;;;;;;;;;5035281;28;20211;-66
2022/12/23 08:28:16;;;;;;;3.40;2.20;;;;;;;;;;5030394;28;20288;-68
2022/12/23 08:30:43;;;;;;;2.93;2.73;;;;;;;;;;5040334;28;20281;-69
2022/12/23 08:33:10;;;;;;;4.30;2.57;;;;;;;;;;5030739;28;20212;-68
2022/12/23 08:35:37;;;;;;;3.90;3.43;;;;;;;;;;5031726;28;20208;-66
2022/12/23 08:38:05;;;;;;;4.03;3.33;;;;;;;;;;5040189;28;20219;-67
2022/12/23 08:40:33;;;;;;;4.30;3.43;;;;;;;;;;5044312;28;20242;-68
2022/12/23 08:43:00;;;;;;;4.30;3.53;;;;;;;;;;5035604;28;20261;-67
2022/12/23 08:45:27;;;;;;;3.73;3.43;;;;;;;;;;5034102;28;20208;-68
2022/12/23 08:47:54;;;;;;;4.00;3.47;;;;;;;;;;5041364;28;20215;-68
2022/12/23 08:50:21;;;;;;;3.87;3.57;;;;;;;;;;5034260;28;20236;-67
2022/12/23 08:52:48;;;;;;;3.30;3.00;;;;;;;;;;5040734;28;20212;-68
2022/12/23 08:55:16;;;;;;;5.53;3.23;;;;;;;;;;5029882;28;20282;-67
2022/12/23 08:57:43;;;;;;;4.90;3.37;;;;;;;;;;5034048;28;20227;-67
2022/12/23 09:00:11;;;;;;;3.60;3.30;;;;;;;;;;5029496;28;20560;-67
2022/12/23 09:02:38;;;;;;;3.00;2.80;;;;;;;;;;5037949;28;20212;-64
2022/12/23 09:05:05;;;;;;;2.87;2.67;;;;;;;;;;5029182;28;20204;-68
2022/12/23 09:07:32;;;;;;;1.87;1.77;;;;;;;;;;5033769;28;20246;-67
2022/12/23 09:09:59;;;;;;;2.27;2.17;;;;;;;;;;5037952;28;20209;-64
2022/12/23 09:12:27;;;;;;;2.43;2.23;;;;;;;;;;5028953;28;20286;-67
2022/12/23 09:14:54;;;;;;;2.03;1.93;;;;;;;;;;5029271;28;20835;-67
2022/12/23 09:17:21;;;;;;;2.10;2.00;;;;;;;;;;5031940;28;20258;-67
2022/12/23 09:19:48;;;;;;;1.90;1.80;;;;;;;;;;5049010;28;20215;-67
2022/12/23 09:22:15;;;;;;;1.40;1.30;;;;;;;;;;5047592;28;20273;-67
2022/12/23 09:24:42;;;;;;;1.70;1.63;;;;;;;;;;5029380;28;20212;-66
2022/12/23 09:27:09;;;;;;;1.40;1.40;;;;;;;;;;5048303;28;20666;-66
2022/12/23 09:29:38;;;;;;;1.33;1.23;;;;;;;;;;5038676;28;20212;-66
2022/12/23 09:32:05;;;;;;;2.40;1.53;;;;;;;;;;5028982;28;20286;-66
2022/12/23 09:34:32;;;;;;;1.33;1.30;;;;;;;;;;5037534;28;20336;-66
2022/12/23 09:36:59;;;;;;;3.67;1.93;;;;;;;;;;5047241;28;20257;-67
2022/12/23 09:39:26;;;;;;;1.70;1.63;;;;;;;;;;5041171;28;20250;-67
2022/12/23 09:42:00;;;;;;;1.63;1.63;;;;;;;;;;5028048;28;20570;-67
2022/12/23 09:44:35;;;;;;;1.30;1.30;;;;;;;;;;5028307;28;20303;-66
2022/12/23 09:47:05;;;;;;;1.10;1.10;;;;;;;;;;5028844;28;20216;-67
2022/12/23 09:49:32;;;;;;;1.40;1.40;;;;;;;;;;5031552;28;20200;-66
2022/12/23 09:52:02;;;;;;;1.53;1.33;;;;;;;;;;5037062;28;20224;-67
2022/12/23 09:54:29;;;;;;;1.83;1.70;;;;;;;;;;5028429;28;20906;-61
2022/12/23 09:56:58;;;;;;;1.43;1.33;;;;;;;;;;5029529;28;20645;-67
2022/12/23 09:59:31;;;;;;;1.83;1.80;;;;;;;;;;5028376;28;20204;-68
2022/12/23 10:02:01;;;;;;;1.50;1.47;;;;;;;;;;5028698;28;20205;-67
2022/12/23 10:04:37;;;;;;;3.10;2.80;;;;;;;;;;5028561;28;20212;-66
2022/12/23 10:07:11;;;;;;;4.23;2.07;;;;;;;;;;5029660;28;20614;-67
2022/12/23 10:09:39;;;;;;;2.30;2.20;;;;;;;;;;5032570;28;20281;-67
2022/12/23 10:12:11;;;;;;;2.07;1.97;;;;;;;;;;5036568;28;20248;-66
2022/12/23 10:14:38;;;;;;;4.20;1.70;;;;;;;;;;5042476;28;20212;-67
2022/12/23 10:17:09;;;;;;;1.60;1.53;;;;;;;;;;5047291;28;20210;-67
2022/12/23 10:19:40;;;;;;;2.27;1.83;;;;;;;;;;5048125;28;20301;-67
2022/12/23 10:22:11;;;;;;;1.80;1.70;;;;;;;;;;5035056;28;20291;-64
2022/12/23 10:24:39;;;;;;;1.30;1.20;;;;;;;;;;5028466;28;20211;-66
2022/12/23 10:27:14;;;;;;;2.40;1.53;;;;;;;;;;5028460;28;20679;-66
2022/12/23 10:29:41;;;;;;;1.43;1.30;;;;;;;;;;5028190;28;20216;-66
2022/12/23 10:32:22;;;;;;;1.57;1.47;;;;;;;;;;5040082;28;20224;-62
2022/12/23 10:34:53;;;;;;;1.83;1.57;;;;;;;;;;5048237;28;20215;-64
2022/12/23 10:37:25;;;;;;;1.30;1.30;;;;;;;;;;5033469;28;20204;-63
2022/12/23 10:40:00;;;;;;;1.50;1.40;;;;;;;;;;5047750;28;20222;-66
2022/12/23 10:42:29;;;;;;;1.77;1.10;;;;;;;;;;5036042;28;20191;-66
2022/12/23 10:45:16;;;;;;;1.90;1.80;;;;;;;;;;5040261;28;20212;-67
2022/12/23 10:47:51;;;;;;;1.40;1.30;;;;;;;;;;5031213;28;20897;-64
2022/12/23 10:50:35;;;;;;;3.37;1.60;;;;;;;;;;5030157;28;20214;-65
2022/12/23 10:53:04;;;;;;;1.47;1.37;;;;;;;;;;5032849;28;20219;-65
2022/12/23 10:55:33;;;;;;;1.30;1.30;;;;;;;;;;5029006;28;20232;-66
2022/12/23 10:58:04;;;;;;;1.40;1.40;;;;;;;;;;5031623;28;20209;-66
2022/12/23 11:00:31;;;;;;;1.10;1.10;;;;;;;;;;5033121;28;20207;-65
2022/12/23 11:03:05;;;;;;;1.53;0.80;;;;;;;;;;5031572;28;20212;-66
2022/12/23 11:05:34;;;;;;;0.70;0.70;;;;;;;;;;5033597;28;20250;-65
2022/12/23 11:08:02;;;;;;;1.77;1.30;;;;;;;;;;5031390;28;20200;-65
2022/12/23 11:10:31;;;;;;;1.00;1.00;;;;;;;;;;5031454;28;20660;-65
2022/12/23 11:12:59;;;;;;;0.77;0.77;;;;;;;;;;5031223;28;20773;-66
2022/12/23 11:15:28;;;;;;;1.60;1.50;;;;;;;;;;5031322;28;20216;-65
2022/12/23 11:17:59;;;;;;;0.90;0.90;;;;;;;;;;5043709;28;20208;-65
2022/12/23 11:20:26;;;;;;;1.70;1.10;;;;;;;;;;5051310;28;20318;-66
2022/12/23 11:22:57;;;;;;;1.30;1.17;;;;;;;;;;5047567;28;20204;-66
2022/12/23 11:25:28;;;;;;;1.97;1.30;;;;;;;;;;5031300;28;20226;-65
2022/12/23 11:27:57;;;;;;;1.60;1.50;;;;;;;;;;5031136;28;20560;-65
2022/12/23 11:30:24;;;;;;;1.30;1.30;;;;;;;;;;5040174;28;20211;-66
2022/12/23 11:32:52;;;;;;;1.27;1.17;;;;;;;;;;5041424;28;20282;-65
2022/12/23 11:35:26;;;;;;;2.40;1.37;;;;;;;;;;5041460;28;20215;-65
2022/12/23 11:37:54;;;;;;;1.43;1.20;;;;;;;;;;5033474;28;20208;-65
2022/12/23 11:40:24;;;;;;;2.63;1.40;;;;;;;;;;5048142;28;20212;-65
2022/12/23 11:42:53;;;;;;;1.30;1.30;;;;;;;;;;5031550;28;20223;-65
2022/12/23 11:45:22;;;;;;;1.30;1.20;;;;;;;;;;5044266;28;20217;-65
2022/12/23 11:47:49;;;;;;;1.23;1.23;;;;;;;;;;5050506;28;20563;-65
2022/12/23 11:50:31;;;;;;;1.40;1.40;;;;;;;;;;5039265;28;20284;-65
2022/12/23 11:53:05;;;;;;;1.70;1.63;;;;;;;;;;5041260;28;20231;-65
2022/12/23 11:55:32;;;;;;;1.50;1.50;;;;;;;;;;5049062;28;20230;-65
2022/12/23 11:58:00;;;;;;;1.37;1.37;;;;;;;;;;5037396;28;20211;-65
2022/12/23 12:00:29;;;;;;;3.43;1.60;;;;;;;;;;5043192;28;20568;-65
2022/12/23 12:02:57;;;;;;;1.90;1.80;;;;;;;;;;5050578;28;20304;-65
2022/12/23 12:05:27;;;;;;;1.50;1.40;;;;;;;;;;5049154;28;20230;-65
2022/12/23 12:07:58;;;;;;;2.60;1.83;;;;;;;;;;5046315;28;20667;-65
2022/12/23 12:10:29;;;;;;;2.10;1.47;;;;;;;;;;5038269;28;20236;-65
2022/12/23 12:12:56;;;;;;;3.57;3.17;;;;;;;;;;5039051;28;20243;-65
2022/12/23 12:15:27;;;;;;;2.10;2.10;;;;;;;;;;5049755;28;20269;-65
2022/12/23 12:17:56;;;;;;;1.73;1.73;;;;;;;;;;5038374;28;20205;-65
2022/12/23 12:20:27;;;;;;;1.50;1.50;;;;;;;;;;5036457;28;20287;-65
2022/12/23 12:22:57;;;;;;;5.47;1.77;;;;;;;;;;5036141;28;20575;-65
2022/12/23 12:25:24;;;;;;;1.70;1.67;;;;;;;;;;5034271;28;20261;-67
2022/12/23 12:27:54;;;;;;;2.20;1.53;;;;;;;;;;5032639;28;20208;-63
2022/12/23 12:30:22;;;;;;;1.63;1.50;;;;;;;;;;5040124;28;20213;-66
2022/12/23 12:32:53;;;;;;;1.50;1.40;;;;;;;;;;5034656;28;20231;-66
2022/12/23 12:35:22;;;;;;;1.40;1.40;;;;;;;;;;5028281;28;20208;-66
2022/12/23 12:37:52;;;;;;;3.90;1.40;;;;;;;;;;5045066;28;20264;-65
2022/12/23 12:40:25;;;;;;;1.47;1.30;;;;;;;;;;5039860;28;20216;-65
2022/12/23 12:42:57;;;;;;;1.33;1.23;;;;;;;;;;5036459;28;20296;-65
2022/12/23 12:45:26;;;;;;;3.10;1.57;;;;;;;;;;5044084;28;20290;-65
2022/12/23 12:48:04;;;;;;;1.53;1.43;;;;;;;;;;5029707;28;20216;-66
2022/12/23 12:50:33;;;;;;;2.33;1.67;;;;;;;;;;5041089;28;20294;-66
2022/12/23 12:53:02;;;;;;;1.70;1.60;;;;;;;;;;5048301;28;20546;-65
2022/12/23 12:55:30;;;;;;;3.10;2.47;;;;;;;;;;5047149;28;20240;-66
2022/12/23 12:57:58;;;;;;;2.20;2.10;;;;;;;;;;5028860;28;20336;-66
2022/12/23 13:00:25;;;;;;;2.70;2.50;;;;;;;;;;5029305;28;20215;-65
2022/12/23 13:03:08;;;;;;;3.17;1.80;;;;;;;;;;5042170;28;20203;-66
2022/12/23 13:05:44;;;;;;;2.67;2.47;;;;;;;;;;5048423;28;20208;-66
2022/12/23 13:08:18;;;;;;;2.10;2.00;;;;;;;;;;5049138;28;20245;-65
2022/12/23 13:10:48;;;;;;;2.47;2.17;;;;;;;;;;5032025;28;20240;-65
2022/12/23 13:13:23;;;;;;;1.90;1.80;;;;;;;;;;5028525;28;20224;-65
2022/12/23 13:15:54;;;;;;;1.60;1.50;;;;;;;;;;5045136;28;20207;-65
2022/12/23 13:18:28;;;;;;;1.70;1.60;;;;;;;;;;5048091;28;20232;-65
2022/12/23 13:20:58;;;;;;;2.33;2.17;;;;;;;;;;5032173;28;20204;-65
2022/12/23 13:23:30;;;;;;;1.90;1.80;;;;;;;;;;5028775;28;20545;-66
2022/12/23 13:26:00;;;;;;;1.57;1.40;;;;;;;;;;5044095;28;20203;-65
2022/12/23 13:28:33;;;;;;;1.73;1.63;;;;;;;;;;5035566;28;20816;-65
2022/12/23 13:31:01;;;;;;;2.73;1.80;;;;;;;;;;5042951;28;20666;-66
2022/12/23 13:33:34;;;;;;;1.67;1.57;;;;;;;;;;5048529;28;20243;-65
2022/12/23 13:36:15;;;;;;;2.60;2.40;;;;;;;;;;5036922;28;20663;-65
2022/12/23 13:38:52;;;;;;;2.57;2.37;;;;;;;;;;5036007;28;20203;-65
2022/12/23 13:41:23;;;;;;;3.13;2.87;;;;;;;;;;5028180;28;20207;-66
2022/12/23 13:43:54;;;;;;;6.23;2.53;;;;;;;;;;5028512;28;20200;-66
2022/12/23 13:46:24;;;;;;;2.33;2.23;;;;;;;;;;5028446;28;20208;-66
2022/12/23 13:48:54;;;;;;;3.23;2.93;;;;;;;;;;5037254;28;20628;-65
2022/12/23 13:51:24;;;;;;;4.27;2.47;;;;;;;;;;5032641;28;20241;-65
2022/12/23 13:53:56;;;;;;;2.53;2.43;;;;;;;;;;5029785;28;20262;-66
2022/12/23 13:56:27;;;;;;;3.77;3.03;;;;;;;;;;5029700;28;20227;-66
2022/12/23 13:58:56;;;;;;;3.33;3.07;;;;;;;;;;5027615;28;20668;-66
2022/12/23 14:01:33;;;;;;;2.90;2.70;;;;;;;;;;5033755;28;20256;-66
2022/12/23 14:04:29;;;;;;;3.70;3.40;;;;;;;;;;5036845;28;20211;-66
2022/12/23 14:06:57;;;;;;;4.23;3.27;;;;;;;;;;5028115;28;20212;-66
2022/12/23 14:09:29;;;;;;;3.50;3.20;;;;;;;;;;5031628;28;20298;-66
2022/12/23 14:11:56;;;;;;;2.80;2.60;;;;;;;;;;5048008;28;20251;-66
2022/12/23 14:14:25;;;;;;;3.43;3.13;;;;;;;;;;5044436;28;20199;-66
2022/12/23 14:17:01;;;;;;;2.93;2.73;;;;;;;;;;5041090;28;20547;-67
2022/12/23 14:19:41;;;;;;;3.00;2.80;;;;;;;;;;5031089;28;20705;-66
2022/12/23 14:22:14;;;;;;;5.50;4.03;;;;;;;;;;5046287;28;20278;-66
2022/12/23 14:24:57;;;;;;;2.67;2.57;;;;;;;;;;5030759;28;20240;-66
2022/12/23 14:27:33;;;;;;;2.47;2.30;;;;;;;;;;5038107;28;20684;-67
2022/12/23 14:30:07;;;;;;;2.17;1.97;;;;;;;;;;5035214;28;20618;-66
2022/12/23 14:32:39;;;;;;;2.70;2.50;;;;;;;;;;5032807;28;20228;-66
2022/12/23 14:35:18;;;;;;;2.23;2.10;;;;;;;;;;5041346;28;20224;-66
2022/12/23 14:38:05;;;;;;;2.00;1.90;;;;;;;;;;5042493;28;20200;-66
2022/12/23 14:40:49;;;;;;;2.10;2.00;;;;;;;;;;5051208;28;20215;-67
2022/12/23 14:43:24;;;;;;;2.90;2.40;;;;;;;;;;5036520;28;20319;-67
2022/12/23 14:45:53;;;;;;;2.33;2.13;;;;;;;;;;5032018;28;20365;-68
2022/12/23 14:48:39;;;;;;;2.37;2.27;;;;;;;;;;5042505;28;20214;-67
2022/12/23 14:51:22;;;;;;;1.40;1.40;;;;;;;;;;5032255;28;20203;-66
2022/12/23 14:54:04;;;;;;;2.20;2.10;;;;;;;;;;5033230;28;20645;-66
2022/12/23 14:56:37;;;;;;;2.27;2.17;;;;;;;;;;5035201;28;20580;-62
2022/12/23 14:59:13;;;;;;;1.90;1.80;;;;;;;;;;5039986;28;20674;-65
2022/12/23 15:01:43;;;;;;;2.53;2.33;;;;;;;;;;5046076;28;20226;-66
2022/12/23 15:04:16;;;;;;;2.40;2.27;;;;;;;;;;5046014;28;20249;-72
2022/12/23 15:06:45;;;;;;;2.80;2.60;;;;;;;;;;5032874;28;20254;-66
2022/12/23 15:09:19;;;;;;;2.33;2.23;;;;;;;;;;5038537;28;20257;-66
2022/12/23 15:11:46;;;;;;;2.03;1.93;;;;;;;;;;5037591;28;20330;-66
2022/12/23 15:14:20;;;;;;;2.10;2.00;;;;;;;;;;5036584;28;20337;-67
2022/12/23 15:16:48;;;;;;;2.17;2.10;;;;;;;;;;5041531;28;20208;-66
2022/12/23 15:19:20;;;;;;;2.17;2.13;;;;;;;;;;5035161;28;20196;-67
2022/12/23 15:21:48;;;;;;;2.37;2.27;;;;;;;;;;5046437;28;20199;-67
2022/12/23 15:24:16;;;;;;;1.90;1.80;;;;;;;;;;5044050;28;20207;-68
2022/12/23 15:26:46;;;;;;;2.40;2.30;;;;;;;;;;5049169;28;20207;-67
2022/12/23 15:29:15;;;;;;;1.97;1.97;;;;;;;;;;5049256;28;20210;-67